sensor_id;sensor_type;location;lat;lon;timestamp;temperature;humidity
13892;DHT22;7016;48.172;8.058;2023-05-21T00:01:41;16.20;99.90
13892;DHT22;7016;48.172;8.058;2023-05-21T00:04:07;16.10;99.90
13892;DHT22;7016;48.172;8.058;2023-05-21T00:06:33;16.10;99.90
13892;DHT22;7016;48.172;8.058;2023-05-21T00:09:03;16.20;99.90
13892;DHT22;7016;48.172;8.058;2023-05-21T00:11:29;16.20;99.90
13892;DHT22;7016;48.172;8.058;2023-05-21T00:13:54;16.10;99.90
13892;DHT22;7016;48.172;8.058;2023-05-21T00:16:21;16.10;99.90
13892;DHT22;7016;48.172;8.058;2023-05-21T00:18:47;16.20;99.90
13892;DHT22;7016;48.172;8.058;2023-05-21T00:21:14;16.20;99.90
13892;DHT22;7016;48.172;8.058;2023-05-21T00:23:42;16.10;99.90
13892;DHT22;7016;48.172;8.058;2023-05-21T00:26:08;16.10;99.90
13892;DHT22;7016;48.172;8.058;2023-05-21T00:28:34;16.00;99.90
13892;DHT22;7016;48.172;8.058;2023-05-21T00:31:00;15.90;99.90
13892;DHT22;7016;48.172;8.058;2023-05-21T00:33:25;16.00;99.90
13892;DHT22;7016;48.172;8.058;2023-05-21T00:35:54;16.00;99.90
13892;DHT22;7016;48.172;8.058;2023-05-21T00:38:20;16.00;99.90
13892;DHT22;7016;48.172;8.058;2023-05-21T00:40:46;16.00;99.90
13892;DHT22;7016;48.172;8.058;2023-05-21T00:43:12;15.90;99.90
13892;DHT22;7016;48.172;8.058;2023-05-21T00:45:40;16.00;99.90
13892;DHT22;7016;48.172;8.058;2023-05-21T00:48:07;15.90;99.90
13892;DHT22;7016;48.172;8.058;2023-05-21T00:50:33;15.90;99.90
13892;DHT22;7016;48.172;8.058;2023-05-21T00:53:00;15.90;99.90
13892;DHT22;7016;48.172;8.058;2023-05-21T00:55:26;15.90;99.90
13892;DHT22;7016;48.172;8.058;2023-05-21T00:57:52;15.90;99.90
13892;DHT22;7016;48.172;8.058;2023-05-21T01:00:18;15.90;99.90
13892;DHT22;7016;48.172;8.058;2023-05-21T01:02:45;15.90;99.90
13892;DHT22;7016;48.172;8.058;2023-05-21T01:05:11;15.90;99.90
13892;DHT22;7016;48.172;8.058;2023-05-21T01:07:39;15.90;99.90
13892;DHT22;7016;48.172;8.058;2023-05-21T01:10:08;15.90;99.90
13892;DHT22;7016;48.172;8.058;2023-05-21T01:12:36;16.00;99.90
13892;DHT22;7016;48.172;8.058;2023-05-21T01:15:04;15.90;99.90
13892;DHT22;7016;48.172;8.058;2023-05-21T01:17:30;15.90;99.90
13892;DHT22;7016;48.172;8.058;2023-05-21T01:19:59;15.90;99.90
13892;DHT22;7016;48.172;8.058;2023-05-21T01:22:30;15.90;99.90
13892;DHT22;7016;48.172;8.058;2023-05-21T01:24:56;15.90;99.90
13892;DHT22;7016;48.172;8.058;2023-05-21T01:27:22;15.80;99.90
13892;DHT22;7016;48.172;8.058;2023-05-21T01:29:48;15.80;99.90
13892;DHT22;7016;48.172;8.058;2023-05-21T01:32:29;15.70;99.90
13892;DHT22;7016;48.172;8.058;2023-05-21T01:37:38;15.70;99.90
13892;DHT22;7016;48.172;8.058;2023-05-21T01:40:11;15.70;99.90
13892;DHT22;7016;48.172;8.058;2023-05-21T01:42:42;15.80;99.90
13892;DHT22;7016;48.172;8.058;2023-05-21T01:45:09;15.70;99.90
13892;DHT22;7016;48.172;8.058;2023-05-21T01:47:36;15.60;99.90
13892;DHT22;7016;48.172;8.058;2023-05-21T01:50:04;15.60;99.90
13892;DHT22;7016;48.172;8.058;2023-05-21T01:52:29;15.50;99.90
13892;DHT22;7016;48.172;8.058;2023-05-21T01:54:56;15.50;99.90
13892;DHT22;7016;48.172;8.058;2023-05-21T01:57:22;15.50;99.90
13892;DHT22;7016;48.172;8.058;2023-05-21T01:59:48;15.40;99.90
13892;DHT22;7016;48.172;8.058;2023-05-21T02:02:14;15.40;99.90
13892;DHT22;7016;48.172;8.058;2023-05-21T02:04:39;15.40;99.90
13892;DHT22;7016;48.172;8.058;2023-05-21T02:07:06;15.30;99.90
13892;DHT22;7016;48.172;8.058;2023-05-21T02:09:32;15.30;99.90
13892;DHT22;7016;48.172;8.058;2023-05-21T02:11:58;15.30;99.90
13892;DHT22;7016;48.172;8.058;2023-05-21T02:14:24;15.30;99.90
13892;DHT22;7016;48.172;8.058;2023-05-21T02:16:50;15.30;99.90
13892;DHT22;7016;48.172;8.058;2023-05-21T02:19:17;15.20;99.90
13892;DHT22;7016;48.172;8.058;2023-05-21T02:21:43;15.10;99.90
13892;DHT22;7016;48.172;8.058;2023-05-21T02:24:08;15.20;99.90
13892;DHT22;7016;48.172;8.058;2023-05-21T02:26:34;15.20;99.90
13892;DHT22;7016;48.172;8.058;2023-05-21T02:29:00;15.10;99.90
13892;DHT22;7016;48.172;8.058;2023-05-21T02:31:26;15.10;99.90
13892;DHT22;7016;48.172;8.058;2023-05-21T02:33:51;15.10;99.90
13892;DHT22;7016;48.172;8.058;2023-05-21T02:36:17;15.00;99.90
13892;DHT22;7016;48.172;8.058;2023-05-21T02:38:43;14.90;99.90
13892;DHT22;7016;48.172;8.058;2023-05-21T02:41:10;14.90;99.90
13892;DHT22;7016;48.172;8.058;2023-05-21T02:43:36;15.00;99.90
13892;DHT22;7016;48.172;8.058;2023-05-21T02:46:03;15.00;99.90
13892;DHT22;7016;48.172;8.058;2023-05-21T02:48:29;15.00;99.90
13892;DHT22;7016;48.172;8.058;2023-05-21T02:50:54;15.00;99.90
13892;DHT22;7016;48.172;8.058;2023-05-21T02:53:20;15.00;99.90
13892;DHT22;7016;48.172;8.058;2023-05-21T02:55:46;14.90;99.90
13892;DHT22;7016;48.172;8.058;2023-05-21T02:58:12;14.90;99.90
13892;DHT22;7016;48.172;8.058;2023-05-21T03:00:39;14.90;99.90
13892;DHT22;7016;48.172;8.058;2023-05-21T03:03:05;14.90;99.90
13892;DHT22;7016;48.172;8.058;2023-05-21T03:05:31;14.90;99.90
13892;DHT22;7016;48.172;8.058;2023-05-21T03:07:56;14.80;99.90
13892;DHT22;7016;48.172;8.058;2023-05-21T03:10:22;14.90;99.90
13892;DHT22;7016;48.172;8.058;2023-05-21T03:12:48;14.90;99.90
13892;DHT22;7016;48.172;8.058;2023-05-21T03:15:13;14.90;99.90
13892;DHT22;7016;48.172;8.058;2023-05-21T03:17:40;14.80;99.90
13892;DHT22;7016;48.172;8.058;2023-05-21T03:20:07;14.80;99.90
13892;DHT22;7016;48.172;8.058;2023-05-21T03:22:41;14.80;99.90
13892;DHT22;7016;48.172;8.058;2023-05-21T03:25:08;14.80;99.90
13892;DHT22;7016;48.172;8.058;2023-05-21T03:27:34;14.80;99.90
13892;DHT22;7016;48.172;8.058;2023-05-21T03:30:00;14.70;99.90
13892;DHT22;7016;48.172;8.058;2023-05-21T03:32:25;14.70;99.90
13892;DHT22;7016;48.172;8.058;2023-05-21T03:34:51;14.70;99.90
13892;DHT22;7016;48.172;8.058;2023-05-21T03:37:16;14.60;99.90
13892;DHT22;7016;48.172;8.058;2023-05-21T03:39:42;14.60;99.90
13892;DHT22;7016;48.172;8.058;2023-05-21T03:42:08;14.60;99.90
13892;DHT22;7016;48.172;8.058;2023-05-21T03:44:37;14.60;99.90
13892;DHT22;7016;48.172;8.058;2023-05-21T03:47:07;14.60;99.90
13892;DHT22;7016;48.172;8.058;2023-05-21T03:49:32;14.60;99.90
13892;DHT22;7016;48.172;8.058;2023-05-21T03:51:58;14.60;99.90
13892;DHT22;7016;48.172;8.058;2023-05-21T03:54:23;14.50;99.90
13892;DHT22;7016;48.172;8.058;2023-05-21T03:56:50;14.50;99.90
13892;DHT22;7016;48.172;8.058;2023-05-21T03:59:15;14.50;99.90
13892;DHT22;7016;48.172;8.058;2023-05-21T04:01:41;14.40;99.90
13892;DHT22;7016;48.172;8.058;2023-05-21T04:04:07;14.50;99.90
13892;DHT22;7016;48.172;8.058;2023-05-21T04:06:32;14.50;99.90
13892;DHT22;7016;48.172;8.058;2023-05-21T04:08:58;14.50;99.90
13892;DHT22;7016;48.172;8.058;2023-05-21T04:11:24;14.50;99.90
13892;DHT22;7016;48.172;8.058;2023-05-21T04:13:50;14.50;99.90
13892;DHT22;7016;48.172;8.058;2023-05-21T04:16:16;14.40;99.90
13892;DHT22;7016;48.172;8.058;2023-05-21T04:18:44;14.40;99.90
13892;DHT22;7016;48.172;8.058;2023-05-21T04:21:10;14.40;99.90
13892;DHT22;7016;48.172;8.058;2023-05-21T04:23:36;14.40;99.90
13892;DHT22;7016;48.172;8.058;2023-05-21T04:26:02;14.40;99.90
13892;DHT22;7016;48.172;8.058;2023-05-21T04:28:29;14.30;99.90
13892;DHT22;7016;48.172;8.058;2023-05-21T04:30:55;14.30;99.90
13892;DHT22;7016;48.172;8.058;2023-05-21T04:33:21;14.30;99.90
13892;DHT22;7016;48.172;8.058;2023-05-21T04:35:49;14.30;99.90
13892;DHT22;7016;48.172;8.058;2023-05-21T04:38:16;14.30;99.90
13892;DHT22;7016;48.172;8.058;2023-05-21T04:40:45;14.40;99.90
13892;DHT22;7016;48.172;8.058;2023-05-21T04:43:11;14.40;99.90
13892;DHT22;7016;48.172;8.058;2023-05-21T04:45:37;14.40;99.90
13892;DHT22;7016;48.172;8.058;2023-05-21T04:48:03;14.40;99.90
13892;DHT22;7016;48.172;8.058;2023-05-21T04:50:28;14.40;99.90
13892;DHT22;7016;48.172;8.058;2023-05-21T04:52:58;14.40;99.90
13892;DHT22;7016;48.172;8.058;2023-05-21T04:55:23;14.40;99.90
13892;DHT22;7016;48.172;8.058;2023-05-21T04:57:49;14.50;99.90
13892;DHT22;7016;48.172;8.058;2023-05-21T05:00:15;14.50;99.90
13892;DHT22;7016;48.172;8.058;2023-05-21T05:02:41;14.50;99.90
13892;DHT22;7016;48.172;8.058;2023-05-21T05:05:07;14.50;99.90
13892;DHT22;7016;48.172;8.058;2023-05-21T05:07:33;14.50;99.90
13892;DHT22;7016;48.172;8.058;2023-05-21T05:09:59;14.60;99.90
13892;DHT22;7016;48.172;8.058;2023-05-21T05:12:24;14.50;99.90
13892;DHT22;7016;48.172;8.058;2023-05-21T05:14:50;14.60;99.90
13892;DHT22;7016;48.172;8.058;2023-05-21T05:17:16;14.60;99.90
13892;DHT22;7016;48.172;8.058;2023-05-21T05:19:41;14.70;99.90
13892;DHT22;7016;48.172;8.058;2023-05-21T05:22:07;14.70;99.90
13892;DHT22;7016;48.172;8.058;2023-05-21T05:24:33;14.80;99.90
13892;DHT22;7016;48.172;8.058;2023-05-21T05:26:58;14.70;99.90
13892;DHT22;7016;48.172;8.058;2023-05-21T05:29:24;14.80;99.90
13892;DHT22;7016;48.172;8.058;2023-05-21T05:31:50;14.80;99.90
13892;DHT22;7016;48.172;8.058;2023-05-21T05:34:16;14.90;99.90
13892;DHT22;7016;48.172;8.058;2023-05-21T05:36:41;14.90;99.90
13892;DHT22;7016;48.172;8.058;2023-05-21T05:39:07;14.90;99.90
13892;DHT22;7016;48.172;8.058;2023-05-21T05:41:33;14.90;99.90
13892;DHT22;7016;48.172;8.058;2023-05-21T05:43:58;15.00;99.90
13892;DHT22;7016;48.172;8.058;2023-05-21T05:46:24;15.00;99.90
13892;DHT22;7016;48.172;8.058;2023-05-21T05:48:50;15.10;99.90
13892;DHT22;7016;48.172;8.058;2023-05-21T05:51:16;15.20;99.90
13892;DHT22;7016;48.172;8.058;2023-05-21T05:53:42;15.10;99.90
13892;DHT22;7016;48.172;8.058;2023-05-21T05:56:08;15.10;99.90
13892;DHT22;7016;48.172;8.058;2023-05-21T05:58:33;15.10;99.90
13892;DHT22;7016;48.172;8.058;2023-05-21T06:00:59;15.10;99.90
13892;DHT22;7016;48.172;8.058;2023-05-21T06:03:26;15.10;99.90
13892;DHT22;7016;48.172;8.058;2023-05-21T06:05:52;15.20;99.90
13892;DHT22;7016;48.172;8.058;2023-05-21T06:10:44;15.30;99.90
13892;DHT22;7016;48.172;8.058;2023-05-21T06:13:09;15.30;99.90
13892;DHT22;7016;48.172;8.058;2023-05-21T06:15:35;15.40;99.90
13892;DHT22;7016;48.172;8.058;2023-05-21T06:18:01;15.40;99.90
13892;DHT22;7016;48.172;8.058;2023-05-21T06:20:26;15.40;99.90
13892;DHT22;7016;48.172;8.058;2023-05-21T06:22:52;15.50;99.90
13892;DHT22;7016;48.172;8.058;2023-05-21T06:25:18;15.50;99.90
13892;DHT22;7016;48.172;8.058;2023-05-21T06:27:43;15.60;99.90
13892;DHT22;7016;48.172;8.058;2023-05-21T06:30:09;15.80;99.90
13892;DHT22;7016;48.172;8.058;2023-05-21T06:32:35;15.80;99.90
13892;DHT22;7016;48.172;8.058;2023-05-21T06:35:00;15.90;99.90
13892;DHT22;7016;48.172;8.058;2023-05-21T06:37:26;15.90;99.90
13892;DHT22;7016;48.172;8.058;2023-05-21T06:39:52;16.10;99.90
13892;DHT22;7016;48.172;8.058;2023-05-21T06:42:19;16.20;99.90
13892;DHT22;7016;48.172;8.058;2023-05-21T06:44:44;16.30;99.90
13892;DHT22;7016;48.172;8.058;2023-05-21T06:47:10;16.40;99.90
13892;DHT22;7016;48.172;8.058;2023-05-21T06:49:36;16.60;99.90
13892;DHT22;7016;48.172;8.058;2023-05-21T06:52:01;16.60;99.90
13892;DHT22;7016;48.172;8.058;2023-05-21T06:54:27;16.70;99.90
13892;DHT22;7016;48.172;8.058;2023-05-21T06:56:53;16.80;99.90
13892;DHT22;7016;48.172;8.058;2023-05-21T06:59:19;17.00;99.90
13892;DHT22;7016;48.172;8.058;2023-05-21T07:01:45;17.00;99.90
13892;DHT22;7016;48.172;8.058;2023-05-21T07:04:11;17.10;99.90
13892;DHT22;7016;48.172;8.058;2023-05-21T07:06:37;17.20;99.90
13892;DHT22;7016;48.172;8.058;2023-05-21T07:09:04;17.30;99.90
13892;DHT22;7016;48.172;8.058;2023-05-21T07:11:33;17.40;99.90
13892;DHT22;7016;48.172;8.058;2023-05-21T07:13:59;17.40;99.90
13892;DHT22;7016;48.172;8.058;2023-05-21T07:16:26;17.50;99.90
13892;DHT22;7016;48.172;8.058;2023-05-21T07:18:52;17.50;99.90
13892;DHT22;7016;48.172;8.058;2023-05-21T07:21:17;17.50;99.90
13892;DHT22;7016;48.172;8.058;2023-05-21T07:23:45;17.60;99.90
13892;DHT22;7016;48.172;8.058;2023-05-21T07:26:11;17.70;99.90
13892;DHT22;7016;48.172;8.058;2023-05-21T07:28:36;17.90;99.90
13892;DHT22;7016;48.172;8.058;2023-05-21T07:31:02;17.90;99.90
13892;DHT22;7016;48.172;8.058;2023-05-21T07:33:27;17.90;99.90
13892;DHT22;7016;48.172;8.058;2023-05-21T07:35:53;18.00;99.90
13892;DHT22;7016;48.172;8.058;2023-05-21T07:38:19;18.00;99.90
13892;DHT22;7016;48.172;8.058;2023-05-21T07:40:45;18.00;99.90
13892;DHT22;7016;48.172;8.058;2023-05-21T07:43:11;18.00;99.90
13892;DHT22;7016;48.172;8.058;2023-05-21T07:45:37;18.00;99.90
13892;DHT22;7016;48.172;8.058;2023-05-21T07:48:03;17.70;99.90
13892;DHT22;7016;48.172;8.058;2023-05-21T07:50:28;17.90;99.90
13892;DHT22;7016;48.172;8.058;2023-05-21T07:52:54;17.80;99.90
13892;DHT22;7016;48.172;8.058;2023-05-21T07:55:20;17.70;99.90
13892;DHT22;7016;48.172;8.058;2023-05-21T07:57:46;17.50;99.90
13892;DHT22;7016;48.172;8.058;2023-05-21T08:00:12;17.40;99.90
13892;DHT22;7016;48.172;8.058;2023-05-21T08:02:41;17.40;99.90
13892;DHT22;7016;48.172;8.058;2023-05-21T08:05:07;17.40;99.90
13892;DHT22;7016;48.172;8.058;2023-05-21T08:07:33;17.40;99.90
13892;DHT22;7016;48.172;8.058;2023-05-21T08:09:58;17.40;99.90
13892;DHT22;7016;48.172;8.058;2023-05-21T08:12:24;17.50;99.90
13892;DHT22;7016;48.172;8.058;2023-05-21T08:14:50;17.40;99.90
13892;DHT22;7016;48.172;8.058;2023-05-21T08:17:16;17.50;99.90
13892;DHT22;7016;48.172;8.058;2023-05-21T08:19:41;17.60;99.90
13892;DHT22;7016;48.172;8.058;2023-05-21T08:22:07;17.70;99.90
13892;DHT22;7016;48.172;8.058;2023-05-21T08:24:33;17.60;99.90
13892;DHT22;7016;48.172;8.058;2023-05-21T08:26:59;17.70;99.90
13892;DHT22;7016;48.172;8.058;2023-05-21T08:29:25;17.80;99.90
13892;DHT22;7016;48.172;8.058;2023-05-21T08:31:51;17.90;99.90
13892;DHT22;7016;48.172;8.058;2023-05-21T08:34:16;18.10;99.90
13892;DHT22;7016;48.172;8.058;2023-05-21T08:36:44;18.30;99.90
13892;DHT22;7016;48.172;8.058;2023-05-21T08:39:11;18.60;99.90
13892;DHT22;7016;48.172;8.058;2023-05-21T08:41:40;18.60;99.90
13892;DHT22;7016;48.172;8.058;2023-05-21T08:44:11;18.80;99.90
13892;DHT22;7016;48.172;8.058;2023-05-21T08:46:39;19.00;99.90
13892;DHT22;7016;48.172;8.058;2023-05-21T08:49:11;19.20;99.90
13892;DHT22;7016;48.172;8.058;2023-05-21T08:51:38;19.10;99.90
13892;DHT22;7016;48.172;8.058;2023-05-21T08:54:04;19.40;99.90
13892;DHT22;7016;48.172;8.058;2023-05-21T08:56:31;19.50;99.90
13892;DHT22;7016;48.172;8.058;2023-05-21T08:58:58;19.70;99.90
13892;DHT22;7016;48.172;8.058;2023-05-21T09:01:24;19.60;99.90
13892;DHT22;7016;48.172;8.058;2023-05-21T09:03:52;19.80;99.90
13892;DHT22;7016;48.172;8.058;2023-05-21T09:06:21;19.90;99.90
13892;DHT22;7016;48.172;8.058;2023-05-21T09:08:57;20.10;99.90
13892;DHT22;7016;48.172;8.058;2023-05-21T09:11:25;20.10;99.90
13892;DHT22;7016;48.172;8.058;2023-05-21T09:13:52;20.20;99.90
13892;DHT22;7016;48.172;8.058;2023-05-21T09:16:18;20.30;99.90
13892;DHT22;7016;48.172;8.058;2023-05-21T09:18:44;20.50;99.90
13892;DHT22;7016;48.172;8.058;2023-05-21T09:21:27;20.60;99.90
13892;DHT22;7016;48.172;8.058;2023-05-21T09:23:57;20.60;99.90
13892;DHT22;7016;48.172;8.058;2023-05-21T09:26:24;20.70;99.90
13892;DHT22;7016;48.172;8.058;2023-05-21T09:28:51;20.70;99.90
13892;DHT22;7016;48.172;8.058;2023-05-21T09:31:22;20.80;99.90
13892;DHT22;7016;48.172;8.058;2023-05-21T09:33:48;20.90;99.90
13892;DHT22;7016;48.172;8.058;2023-05-21T09:36:17;21.00;99.90
13892;DHT22;7016;48.172;8.058;2023-05-21T09:38:45;21.20;99.90
13892;DHT22;7016;48.172;8.058;2023-05-21T09:41:11;21.10;99.90
13892;DHT22;7016;48.172;8.058;2023-05-21T09:43:36;21.20;99.90
13892;DHT22;7016;48.172;8.058;2023-05-21T09:46:02;21.20;99.90
13892;DHT22;7016;48.172;8.058;2023-05-21T09:48:39;21.30;99.90
13892;DHT22;7016;48.172;8.058;2023-05-21T09:53:57;21.40;99.90
13892;DHT22;7016;48.172;8.058;2023-05-21T09:56:24;21.60;99.90
13892;DHT22;7016;48.172;8.058;2023-05-21T09:58:54;21.60;99.90
13892;DHT22;7016;48.172;8.058;2023-05-21T10:01:22;21.70;99.90
13892;DHT22;7016;48.172;8.058;2023-05-21T10:03:56;21.70;99.90
13892;DHT22;7016;48.172;8.058;2023-05-21T10:06:31;21.80;99.90
13892;DHT22;7016;48.172;8.058;2023-05-21T10:09:01;22.00;99.90
13892;DHT22;7016;48.172;8.058;2023-05-21T10:11:30;22.00;99.90
13892;DHT22;7016;48.172;8.058;2023-05-21T10:14:06;22.10;99.90
13892;DHT22;7016;48.172;8.058;2023-05-21T10:16:34;22.00;99.90
13892;DHT22;7016;48.172;8.058;2023-05-21T10:19:00;22.20;99.90
13892;DHT22;7016;48.172;8.058;2023-05-21T10:21:26;22.20;99.90
13892;DHT22;7016;48.172;8.058;2023-05-21T10:23:54;22.20;99.90
13892;DHT22;7016;48.172;8.058;2023-05-21T10:26:21;22.30;99.90
13892;DHT22;7016;48.172;8.058;2023-05-21T10:28:51;22.40;99.90
13892;DHT22;7016;48.172;8.058;2023-05-21T10:31:17;22.40;99.90
13892;DHT22;7016;48.172;8.058;2023-05-21T10:33:43;22.50;99.90
13892;DHT22;7016;48.172;8.058;2023-05-21T10:36:09;22.50;99.90
13892;DHT22;7016;48.172;8.058;2023-05-21T10:38:37;22.70;99.90
13892;DHT22;7016;48.172;8.058;2023-05-21T10:41:04;22.60;99.90
13892;DHT22;7016;48.172;8.058;2023-05-21T10:47:30;22.80;99.90
13892;DHT22;7016;48.172;8.058;2023-05-21T10:55:49;22.80;99.90
13892;DHT22;7016;48.172;8.058;2023-05-21T11:00:43;22.70;99.90
13892;DHT22;7016;48.172;8.058;2023-05-21T11:03:10;22.90;99.90
13892;DHT22;7016;48.172;8.058;2023-05-21T11:05:55;22.90;99.90
13892;DHT22;7016;48.172;8.058;2023-05-21T11:08:26;22.90;99.90
13892;DHT22;7016;48.172;8.058;2023-05-21T11:10:56;22.80;99.90
13892;DHT22;7016;48.172;8.058;2023-05-21T11:13:24;22.90;99.90
13892;DHT22;7016;48.172;8.058;2023-05-21T11:16:01;22.90;99.90
13892;DHT22;7016;48.172;8.058;2023-05-21T11:21:04;23.10;99.90
13892;DHT22;7016;48.172;8.058;2023-05-21T11:26:23;23.10;99.90
13892;DHT22;7016;48.172;8.058;2023-05-21T11:28:49;23.10;99.90
13892;DHT22;7016;48.172;8.058;2023-05-21T11:31:26;23.10;99.90
13892;DHT22;7016;48.172;8.058;2023-05-21T11:34:11;23.20;99.90
13892;DHT22;7016;48.172;8.058;2023-05-21T11:36:38;23.30;99.90
13892;DHT22;7016;48.172;8.058;2023-05-21T11:39:08;23.40;99.90
13892;DHT22;7016;48.172;8.058;2023-05-21T11:41:56;23.50;99.90
13892;DHT22;7016;48.172;8.058;2023-05-21T11:47:08;23.50;99.90
13892;DHT22;7016;48.172;8.058;2023-05-21T11:49:35;23.70;99.90
13892;DHT22;7016;48.172;8.058;2023-05-21T11:52:04;23.70;99.90
13892;DHT22;7016;48.172;8.058;2023-05-21T11:54:32;23.60;99.90
13892;DHT22;7016;48.172;8.058;2023-05-21T11:57:08;23.60;99.90
13892;DHT22;7016;48.172;8.058;2023-05-21T11:59:34;23.60;99.90
13892;DHT22;7016;48.172;8.058;2023-05-21T12:02:00;23.70;99.90
13892;DHT22;7016;48.172;8.058;2023-05-21T12:04:30;23.70;99.90
13892;DHT22;7016;48.172;8.058;2023-05-21T12:06:56;23.60;99.90
13892;DHT22;7016;48.172;8.058;2023-05-21T12:09:25;23.60;99.90
13892;DHT22;7016;48.172;8.058;2023-05-21T12:11:51;23.50;99.90
13892;DHT22;7016;48.172;8.058;2023-05-21T12:14:17;23.60;99.90
13892;DHT22;7016;48.172;8.058;2023-05-21T12:16:43;23.60;99.90
13892;DHT22;7016;48.172;8.058;2023-05-21T12:19:09;23.80;99.90
13892;DHT22;7016;48.172;8.058;2023-05-21T12:21:35;23.80;99.90
13892;DHT22;7016;48.172;8.058;2023-05-21T12:24:01;23.90;99.90
13892;DHT22;7016;48.172;8.058;2023-05-21T12:26:27;24.00;99.90
13892;DHT22;7016;48.172;8.058;2023-05-21T12:28:54;24.00;99.90
13892;DHT22;7016;48.172;8.058;2023-05-21T12:31:21;24.00;99.90
13892;DHT22;7016;48.172;8.058;2023-05-21T12:33:51;24.20;99.90
13892;DHT22;7016;48.172;8.058;2023-05-21T12:36:27;24.30;99.90
13892;DHT22;7016;48.172;8.058;2023-05-21T12:38:54;24.30;99.90
13892;DHT22;7016;48.172;8.058;2023-05-21T12:41:22;24.30;99.90
13892;DHT22;7016;48.172;8.058;2023-05-21T12:43:49;24.30;99.90
13892;DHT22;7016;48.172;8.058;2023-05-21T12:46:16;24.30;99.90
13892;DHT22;7016;48.172;8.058;2023-05-21T12:48:52;24.00;99.90
13892;DHT22;7016;48.172;8.058;2023-05-21T12:51:19;24.00;99.90
13892;DHT22;7016;48.172;8.058;2023-05-21T12:53:46;23.90;99.90
13892;DHT22;7016;48.172;8.058;2023-05-21T12:56:12;23.80;99.90
13892;DHT22;7016;48.172;8.058;2023-05-21T12:58:39;23.80;99.90
13892;DHT22;7016;48.172;8.058;2023-05-21T13:01:09;23.80;99.90
13892;DHT22;7016;48.172;8.058;2023-05-21T13:03:40;23.80;99.90
13892;DHT22;7016;48.172;8.058;2023-05-21T13:06:07;23.70;99.90
13892;DHT22;7016;48.172;8.058;2023-05-21T13:08:33;23.70;99.90
13892;DHT22;7016;48.172;8.058;2023-05-21T13:11:03;23.70;99.90
13892;DHT22;7016;48.172;8.058;2023-05-21T13:13:29;23.60;99.90
13892;DHT22;7016;48.172;8.058;2023-05-21T13:15:55;23.70;99.90
13892;DHT22;7016;48.172;8.058;2023-05-21T13:18:21;23.60;99.90
13892;DHT22;7016;48.172;8.058;2023-05-21T13:20:47;23.60;99.90
13892;DHT22;7016;48.172;8.058;2023-05-21T13:23:14;23.60;99.90
13892;DHT22;7016;48.172;8.058;2023-05-21T13:25:40;23.60;99.90
13892;DHT22;7016;48.172;8.058;2023-05-21T13:28:06;23.60;99.90
13892;DHT22;7016;48.172;8.058;2023-05-21T13:30:35;23.40;99.90
13892;DHT22;7016;48.172;8.058;2023-05-21T13:33:01;23.40;99.90
13892;DHT22;7016;48.172;8.058;2023-05-21T13:35:27;23.50;99.90
13892;DHT22;7016;48.172;8.058;2023-05-21T13:37:54;23.40;99.90
13892;DHT22;7016;48.172;8.058;2023-05-21T13:40:21;23.40;99.90
13892;DHT22;7016;48.172;8.058;2023-05-21T13:42:47;23.40;99.90
13892;DHT22;7016;48.172;8.058;2023-05-21T13:45:15;23.30;99.90
13892;DHT22;7016;48.172;8.058;2023-05-21T13:47:42;23.30;99.90
13892;DHT22;7016;48.172;8.058;2023-05-21T13:50:09;23.30;99.90
13892;DHT22;7016;48.172;8.058;2023-05-21T13:52:35;23.30;99.90
13892;DHT22;7016;48.172;8.058;2023-05-21T13:55:01;23.30;99.90
13892;DHT22;7016;48.172;8.058;2023-05-21T13:57:27;23.40;99.90
13892;DHT22;7016;48.172;8.058;2023-05-21T13:59:55;23.40;99.90
13892;DHT22;7016;48.172;8.058;2023-05-21T14:02:21;23.30;99.90
13892;DHT22;7016;48.172;8.058;2023-05-21T14:04:47;23.40;99.90
13892;DHT22;7016;48.172;8.058;2023-05-21T14:07:13;23.10;99.90
13892;DHT22;7016;48.172;8.058;2023-05-21T14:09:39;23.00;99.90
13892;DHT22;7016;48.172;8.058;2023-05-21T14:12:04;23.00;99.90
13892;DHT22;7016;48.172;8.058;2023-05-21T14:14:30;23.10;99.90
13892;DHT22;7016;48.172;8.058;2023-05-21T14:16:56;23.20;99.90
13892;DHT22;7016;48.172;8.058;2023-05-21T14:19:22;23.10;99.90
13892;DHT22;7016;48.172;8.058;2023-05-21T14:21:50;23.10;99.90
13892;DHT22;7016;48.172;8.058;2023-05-21T14:24:16;23.20;99.90
13892;DHT22;7016;48.172;8.058;2023-05-21T14:26:42;23.30;99.90
13892;DHT22;7016;48.172;8.058;2023-05-21T14:29:08;23.50;99.90
13892;DHT22;7016;48.172;8.058;2023-05-21T14:31:34;23.50;99.90
13892;DHT22;7016;48.172;8.058;2023-05-21T14:34:00;23.50;99.90
13892;DHT22;7016;48.172;8.058;2023-05-21T14:36:28;23.40;99.90
13892;DHT22;7016;48.172;8.058;2023-05-21T14:38:53;23.20;99.90
13892;DHT22;7016;48.172;8.058;2023-05-21T14:41:22;23.20;99.90
13892;DHT22;7016;48.172;8.058;2023-05-21T14:43:48;23.10;99.90
13892;DHT22;7016;48.172;8.058;2023-05-21T14:46:13;23.10;99.90
13892;DHT22;7016;48.172;8.058;2023-05-21T14:48:39;23.10;99.90
13892;DHT22;7016;48.172;8.058;2023-05-21T14:51:05;23.00;99.90
13892;DHT22;7016;48.172;8.058;2023-05-21T14:53:31;22.90;99.90
13892;DHT22;7016;48.172;8.058;2023-05-21T14:55:57;22.80;99.90
13892;DHT22;7016;48.172;8.058;2023-05-21T14:58:23;22.10;99.90
13892;DHT22;7016;48.172;8.058;2023-05-21T17:18:04;17.70;99.90
13892;DHT22;7016;48.172;8.058;2023-05-21T17:20:30;17.70;99.90
13892;DHT22;7016;48.172;8.058;2023-05-21T17:22:56;17.70;99.90
13892;DHT22;7016;48.172;8.058;2023-05-21T17:25:21;17.70;99.90
13892;DHT22;7016;48.172;8.058;2023-05-21T17:27:49;17.70;99.90
13892;DHT22;7016;48.172;8.058;2023-05-21T17:30:17;17.80;99.90
13892;DHT22;7016;48.172;8.058;2023-05-21T17:32:42;17.80;99.90
13892;DHT22;7016;48.172;8.058;2023-05-21T17:35:08;17.80;99.90
13892;DHT22;7016;48.172;8.058;2023-05-21T17:37:34;17.80;99.90
13892;DHT22;7016;48.172;8.058;2023-05-21T17:40:00;17.70;99.90
13892;DHT22;7016;48.172;8.058;2023-05-21T17:42:26;17.80;99.90
13892;DHT22;7016;48.172;8.058;2023-05-21T17:44:52;17.70;99.90
13892;DHT22;7016;48.172;8.058;2023-05-21T17:47:18;17.70;99.90
13892;DHT22;7016;48.172;8.058;2023-05-21T17:49:44;17.80;99.90
13892;DHT22;7016;48.172;8.058;2023-05-21T17:52:10;17.70;99.90
13892;DHT22;7016;48.172;8.058;2023-05-21T17:54:35;17.80;99.90
13892;DHT22;7016;48.172;8.058;2023-05-21T17:57:01;17.90;99.90
13892;DHT22;7016;48.172;8.058;2023-05-21T17:59:27;17.50;99.90
13892;DHT22;7016;48.172;8.058;2023-05-21T18:01:52;17.80;99.90
13892;DHT22;7016;48.172;8.058;2023-05-21T18:04:18;17.90;99.90
13892;DHT22;7016;48.172;8.058;2023-05-21T18:06:44;17.70;99.90
13892;DHT22;7016;48.172;8.058;2023-05-21T18:09:09;17.70;99.90
13892;DHT22;7016;48.172;8.058;2023-05-21T18:11:39;17.60;99.90
13892;DHT22;7016;48.172;8.058;2023-05-21T18:14:06;17.50;99.90
13892;DHT22;7016;48.172;8.058;2023-05-21T18:16:31;17.50;99.90
13892;DHT22;7016;48.172;8.058;2023-05-21T18:18:57;17.50;99.90
13892;DHT22;7016;48.172;8.058;2023-05-21T18:21:25;17.50;99.90
13892;DHT22;7016;48.172;8.058;2023-05-21T18:23:50;17.50;99.90
13892;DHT22;7016;48.172;8.058;2023-05-21T18:26:17;17.50;99.90
13892;DHT22;7016;48.172;8.058;2023-05-21T18:28:43;17.50;99.90